sensor_id;sensor_type;location;lat;lon;timestamp;temperature;humidity
4002;DHT22;2015;48.670;9.060;2023-03-01T00:01:37;-1.00;99.90
4002;DHT22;2015;48.670;9.060;2023-03-01T00:04:09;-1.10;99.90
4002;DHT22;2015;48.670;9.060;2023-03-01T00:06:42;-1.10;99.90
4002;DHT22;2015;48.670;9.060;2023-03-01T00:09:17;-1.10;99.90
4002;DHT22;2015;48.670;9.060;2023-03-01T00:11:49;-1.10;99.90
4002;DHT22;2015;48.670;9.060;2023-03-01T00:14:21;-1.00;99.90
4002;DHT22;2015;48.670;9.060;2023-03-01T00:16:53;-1.10;99.90
4002;DHT22;2015;48.670;9.060;2023-03-01T00:19:25;-1.00;99.90
4002;DHT22;2015;48.670;9.060;2023-03-01T00:21:57;-1.00;99.90
4002;DHT22;2015;48.670;9.060;2023-03-01T00:24:29;-1.00;99.90
4002;DHT22;2015;48.670;9.060;2023-03-01T00:27:00;-1.10;99.90
4002;DHT22;2015;48.670;9.060;2023-03-01T00:29:32;-1.10;99.90
4002;DHT22;2015;48.670;9.060;2023-03-01T00:32:04;-1.10;99.90
4002;DHT22;2015;48.670;9.060;2023-03-01T00:34:36;-1.20;99.90
4002;DHT22;2015;48.670;9.060;2023-03-01T00:37:08;-1.20;99.90
4002;DHT22;2015;48.670;9.060;2023-03-01T00:39:39;-1.20;99.90
4002;DHT22;2015;48.670;9.060;2023-03-01T00:42:11;-1.20;99.90
4002;DHT22;2015;48.670;9.060;2023-03-01T00:44:43;-1.20;99.90
4002;DHT22;2015;48.670;9.060;2023-03-01T00:47:15;-1.30;99.90
4002;DHT22;2015;48.670;9.060;2023-03-01T00:49:46;-1.30;99.90
4002;DHT22;2015;48.670;9.060;2023-03-01T00:52:18;-1.40;99.90
4002;DHT22;2015;48.670;9.060;2023-03-01T00:54:52;-1.30;99.90
4002;DHT22;2015;48.670;9.060;2023-03-01T00:57:24;-1.40;99.90
4002;DHT22;2015;48.670;9.060;2023-03-01T00:59:56;-1.40;99.90
4002;DHT22;2015;48.670;9.060;2023-03-01T01:02:27;-1.40;99.90
4002;DHT22;2015;48.670;9.060;2023-03-01T01:04:59;-1.40;99.90
4002;DHT22;2015;48.670;9.060;2023-03-01T01:07:31;-1.40;99.90
4002;DHT22;2015;48.670;9.060;2023-03-01T01:10:03;-1.40;99.90
4002;DHT22;2015;48.670;9.060;2023-03-01T01:12:35;-1.40;99.90
4002;DHT22;2015;48.670;9.060;2023-03-01T01:15:07;-1.40;99.90
4002;DHT22;2015;48.670;9.060;2023-03-01T01:17:40;-1.40;99.90
4002;DHT22;2015;48.670;9.060;2023-03-01T01:20:12;-1.50;99.90
4002;DHT22;2015;48.670;9.060;2023-03-01T01:22:44;-1.40;99.90
4002;DHT22;2015;48.670;9.060;2023-03-01T01:25:15;-1.40;99.90
4002;DHT22;2015;48.670;9.060;2023-03-01T01:27:47;-1.40;99.90
4002;DHT22;2015;48.670;9.060;2023-03-01T01:30:19;-1.40;99.90
4002;DHT22;2015;48.670;9.060;2023-03-01T01:32:51;-1.40;99.90
4002;DHT22;2015;48.670;9.060;2023-03-01T01:35:22;-1.40;99.90
4002;DHT22;2015;48.670;9.060;2023-03-01T01:37:54;-1.40;99.90
4002;DHT22;2015;48.670;9.060;2023-03-01T01:40:26;-1.40;99.90
4002;DHT22;2015;48.670;9.060;2023-03-01T01:42:58;-1.40;99.90
4002;DHT22;2015;48.670;9.060;2023-03-01T01:45:35;-1.40;99.90
4002;DHT22;2015;48.670;9.060;2023-03-01T01:48:13;-1.40;99.90
4002;DHT22;2015;48.670;9.060;2023-03-01T01:50:59;-1.40;99.90
4002;DHT22;2015;48.670;9.060;2023-03-01T01:53:32;-1.40;99.90
4002;DHT22;2015;48.670;9.060;2023-03-01T01:56:06;-1.40;99.90
4002;DHT22;2015;48.670;9.060;2023-03-01T01:58:40;-1.40;99.90
4002;DHT22;2015;48.670;9.060;2023-03-01T02:01:13;-1.40;99.90
4002;DHT22;2015;48.670;9.060;2023-03-01T02:03:46;-1.40;99.90
4002;DHT22;2015;48.670;9.060;2023-03-01T02:06:29;-1.40;99.90
4002;DHT22;2015;48.670;9.060;2023-03-01T02:09:09;-1.40;99.90
4002;DHT22;2015;48.670;9.060;2023-03-01T02:11:43;-1.50;99.90
4002;DHT22;2015;48.670;9.060;2023-03-01T02:14:16;-1.40;99.90
4002;DHT22;2015;48.670;9.060;2023-03-01T02:16:48;-1.40;99.90
4002;DHT22;2015;48.670;9.060;2023-03-01T02:19:41;-1.40;99.90
4002;DHT22;2015;48.670;9.060;2023-03-01T02:22:27;-1.30;99.90
4002;DHT22;2015;48.670;9.060;2023-03-01T02:30:49;-1.10;99.90
4002;DHT22;2015;48.670;9.060;2023-03-01T02:33:40;-1.00;99.90
4002;DHT22;2015;48.670;9.060;2023-03-01T02:36:49;-1.00;99.90
4002;DHT22;2015;48.670;9.060;2023-03-01T02:39:36;-0.90;99.90
4002;DHT22;2015;48.670;9.060;2023-03-01T02:42:17;-0.90;99.90
4002;DHT22;2015;48.670;9.060;2023-03-01T02:44:50;-0.80;99.90
4002;DHT22;2015;48.670;9.060;2023-03-01T02:47:22;-0.80;99.90
4002;DHT22;2015;48.670;9.060;2023-03-01T02:49:53;-0.80;99.90
4002;DHT22;2015;48.670;9.060;2023-03-01T02:52:45;-0.80;99.90
4002;DHT22;2015;48.670;9.060;2023-03-01T02:55:19;-0.70;99.90
4002;DHT22;2015;48.670;9.060;2023-03-01T02:57:51;-0.80;99.90
4002;DHT22;2015;48.670;9.060;2023-03-01T03:00:28;-0.70;99.90
4002;DHT22;2015;48.670;9.060;2023-03-01T03:03:01;-0.70;99.90
4002;DHT22;2015;48.670;9.060;2023-03-01T03:05:34;-0.70;99.90
4002;DHT22;2015;48.670;9.060;2023-03-01T03:08:06;-0.60;99.90
4002;DHT22;2015;48.670;9.060;2023-03-01T03:10:40;-0.70;99.90
4002;DHT22;2015;48.670;9.060;2023-03-01T03:13:13;-0.60;99.90
4002;DHT22;2015;48.670;9.060;2023-03-01T03:15:45;-0.70;99.90
4002;DHT22;2015;48.670;9.060;2023-03-01T03:18:17;-0.60;99.90
4002;DHT22;2015;48.670;9.060;2023-03-01T03:20:50;-0.60;99.90
4002;DHT22;2015;48.670;9.060;2023-03-01T03:23:24;-0.60;99.90
4002;DHT22;2015;48.670;9.060;2023-03-01T03:25:56;-0.60;99.90
4002;DHT22;2015;48.670;9.060;2023-03-01T03:28:27;-0.60;99.90
4002;DHT22;2015;48.670;9.060;2023-03-01T03:31:00;-0.50;99.90
4002;DHT22;2015;48.670;9.060;2023-03-01T03:33:35;-0.50;99.90
4002;DHT22;2015;48.670;9.060;2023-03-01T03:36:07;-0.50;99.90
4002;DHT22;2015;48.670;9.060;2023-03-01T03:38:44;-0.50;99.90
4002;DHT22;2015;48.670;9.060;2023-03-01T03:41:17;-0.50;99.90
4002;DHT22;2015;48.670;9.060;2023-03-01T03:43:49;-0.50;99.90
4002;DHT22;2015;48.670;9.060;2023-03-01T03:46:21;-0.50;99.90
4002;DHT22;2015;48.670;9.060;2023-03-01T03:48:53;-0.50;99.90
4002;DHT22;2015;48.670;9.060;2023-03-01T03:51:24;-0.50;99.90
4002;DHT22;2015;48.670;9.060;2023-03-01T03:53:56;-0.50;99.90
4002;DHT22;2015;48.670;9.060;2023-03-01T03:56:28;-0.40;99.90
4002;DHT22;2015;48.670;9.060;2023-03-01T03:59:00;-0.40;99.90
4002;DHT22;2015;48.670;9.060;2023-03-01T04:01:32;-0.40;99.90
4002;DHT22;2015;48.670;9.060;2023-03-01T04:04:04;-0.30;99.90
4002;DHT22;2015;48.670;9.060;2023-03-01T04:06:36;-0.30;99.90
4002;DHT22;2015;48.670;9.060;2023-03-01T04:09:07;-0.30;99.90
4002;DHT22;2015;48.670;9.060;2023-03-01T04:11:39;-0.30;99.90
4002;DHT22;2015;48.670;9.060;2023-03-01T04:14:11;-0.30;99.90
4002;DHT22;2015;48.670;9.060;2023-03-01T04:16:43;-0.30;99.90
4002;DHT22;2015;48.670;9.060;2023-03-01T04:19:14;-0.30;99.90
4002;DHT22;2015;48.670;9.060;2023-03-01T04:21:46;-0.30;99.90
4002;DHT22;2015;48.670;9.060;2023-03-01T04:24:18;-0.30;99.90
4002;DHT22;2015;48.670;9.060;2023-03-01T04:26:50;-0.30;99.90
4002;DHT22;2015;48.670;9.060;2023-03-01T04:29:21;-0.20;99.90
4002;DHT22;2015;48.670;9.060;2023-03-01T04:31:53;-0.30;99.90
4002;DHT22;2015;48.670;9.060;2023-03-01T04:34:25;-0.30;99.90
4002;DHT22;2015;48.670;9.060;2023-03-01T04:37:00;-0.30;99.90
4002;DHT22;2015;48.670;9.060;2023-03-01T04:39:31;-0.20;99.90
4002;DHT22;2015;48.670;9.060;2023-03-01T04:42:04;-0.20;99.90
4002;DHT22;2015;48.670;9.060;2023-03-01T04:44:35;-0.20;99.90
4002;DHT22;2015;48.670;9.060;2023-03-01T04:47:07;-0.20;99.90
4002;DHT22;2015;48.670;9.060;2023-03-01T04:49:39;-0.20;99.90
4002;DHT22;2015;48.670;9.060;2023-03-01T04:52:11;-0.20;99.90
4002;DHT22;2015;48.670;9.060;2023-03-01T04:54:43;-0.20;99.90
4002;DHT22;2015;48.670;9.060;2023-03-01T04:57:14;-0.20;99.90
4002;DHT22;2015;48.670;9.060;2023-03-01T04:59:46;-0.20;99.90
4002;DHT22;2015;48.670;9.060;2023-03-01T05:02:18;-0.20;99.90
4002;DHT22;2015;48.670;9.060;2023-03-01T05:04:50;-0.20;99.90
4002;DHT22;2015;48.670;9.060;2023-03-01T05:07:21;-0.20;99.90
4002;DHT22;2015;48.670;9.060;2023-03-01T05:09:53;-0.20;99.90
4002;DHT22;2015;48.670;9.060;2023-03-01T05:12:25;-0.10;99.90
4002;DHT22;2015;48.670;9.060;2023-03-01T05:14:57;-0.20;99.90
4002;DHT22;2015;48.670;9.060;2023-03-01T05:17:29;-0.10;99.90
4002;DHT22;2015;48.670;9.060;2023-03-01T05:20:01;-0.20;99.90
4002;DHT22;2015;48.670;9.060;2023-03-01T05:22:37;-0.20;99.90
4002;DHT22;2015;48.670;9.060;2023-03-01T05:25:09;-0.20;99.90
4002;DHT22;2015;48.670;9.060;2023-03-01T05:27:41;-0.20;99.90
4002;DHT22;2015;48.670;9.060;2023-03-01T05:30:13;-0.20;99.90
4002;DHT22;2015;48.670;9.060;2023-03-01T05:32:47;-0.20;99.90
4002;DHT22;2015;48.670;9.060;2023-03-01T05:35:19;-0.30;99.90
4002;DHT22;2015;48.670;9.060;2023-03-01T05:37:51;-0.20;99.90
4002;DHT22;2015;48.670;9.060;2023-03-01T05:40:24;-0.20;99.90
4002;DHT22;2015;48.670;9.060;2023-03-01T05:42:56;-0.20;99.90
4002;DHT22;2015;48.670;9.060;2023-03-01T05:45:28;-0.20;99.90
4002;DHT22;2015;48.670;9.060;2023-03-01T05:48:00;-0.20;99.90
4002;DHT22;2015;48.670;9.060;2023-03-01T05:50:34;-0.20;99.90
4002;DHT22;2015;48.670;9.060;2023-03-01T05:53:11;-0.20;99.90
4002;DHT22;2015;48.670;9.060;2023-03-01T05:55:43;-0.20;99.90
4002;DHT22;2015;48.670;9.060;2023-03-01T05:58:19;-0.20;99.90
4002;DHT22;2015;48.670;9.060;2023-03-01T06:00:51;-0.20;99.90
4002;DHT22;2015;48.670;9.060;2023-03-01T06:03:25;-0.20;99.90
4002;DHT22;2015;48.670;9.060;2023-03-01T06:05:58;-0.20;99.90
4002;DHT22;2015;48.670;9.060;2023-03-01T06:08:30;-0.20;99.90
4002;DHT22;2015;48.670;9.060;2023-03-01T06:11:01;-0.10;99.90
4002;DHT22;2015;48.670;9.060;2023-03-01T06:13:33;-0.10;99.90
4002;DHT22;2015;48.670;9.060;2023-03-01T06:16:06;-0.10;99.90
4002;DHT22;2015;48.670;9.060;2023-03-01T06:18:38;-0.10;99.90
4002;DHT22;2015;48.670;9.060;2023-03-01T06:21:10;-0.10;99.90
4002;DHT22;2015;48.670;9.060;2023-03-01T06:23:42;-0.10;99.90
4002;DHT22;2015;48.670;9.060;2023-03-01T06:26:13;-0.10;99.90
4002;DHT22;2015;48.670;9.060;2023-03-01T06:28:45;-0.10;99.90
4002;DHT22;2015;48.670;9.060;2023-03-01T06:31:17;0.00;99.90
4002;DHT22;2015;48.670;9.060;2023-03-01T06:33:49;0.10;99.90
4002;DHT22;2015;48.670;9.060;2023-03-01T06:36:21;0.10;99.90
4002;DHT22;2015;48.670;9.060;2023-03-01T06:38:53;0.10;99.90
4002;DHT22;2015;48.670;9.060;2023-03-01T06:41:25;0.20;99.90
4002;DHT22;2015;48.670;9.060;2023-03-01T06:43:57;0.20;99.90
4002;DHT22;2015;48.670;9.060;2023-03-01T06:46:28;0.20;99.90
4002;DHT22;2015;48.670;9.060;2023-03-01T06:49:01;0.20;99.90
4002;DHT22;2015;48.670;9.060;2023-03-01T06:51:32;0.20;99.90
4002;DHT22;2015;48.670;9.060;2023-03-01T06:54:04;0.20;99.90
4002;DHT22;2015;48.670;9.060;2023-03-01T06:56:36;0.30;99.90
4002;DHT22;2015;48.670;9.060;2023-03-01T06:59:08;0.40;99.90
4002;DHT22;2015;48.670;9.060;2023-03-01T07:01:39;0.50;99.90
4002;DHT22;2015;48.670;9.060;2023-03-01T07:04:12;0.50;99.90
4002;DHT22;2015;48.670;9.060;2023-03-01T07:06:44;0.50;99.90
4002;DHT22;2015;48.670;9.060;2023-03-01T07:09:16;0.50;99.90
4002;DHT22;2015;48.670;9.060;2023-03-01T07:11:51;0.50;99.90
4002;DHT22;2015;48.670;9.060;2023-03-01T07:14:23;0.40;99.90
4002;DHT22;2015;48.670;9.060;2023-03-01T07:16:58;0.40;99.90
4002;DHT22;2015;48.670;9.060;2023-03-01T07:19:30;0.40;99.90
4002;DHT22;2015;48.670;9.060;2023-03-01T07:22:03;0.30;99.90
4002;DHT22;2015;48.670;9.060;2023-03-01T07:24:35;0.30;99.90
4002;DHT22;2015;48.670;9.060;2023-03-01T07:27:07;0.30;99.90
4002;DHT22;2015;48.670;9.060;2023-03-01T07:29:39;0.30;99.90
4002;DHT22;2015;48.670;9.060;2023-03-01T07:32:11;0.30;99.90
4002;DHT22;2015;48.670;9.060;2023-03-01T07:34:43;0.30;99.90
4002;DHT22;2015;48.670;9.060;2023-03-01T07:37:15;0.40;99.90
4002;DHT22;2015;48.670;9.060;2023-03-01T07:39:46;0.50;99.90
4002;DHT22;2015;48.670;9.060;2023-03-01T07:42:18;0.50;99.90
4002;DHT22;2015;48.670;9.060;2023-03-01T07:44:50;0.50;99.90
4002;DHT22;2015;48.670;9.060;2023-03-01T07:47:21;0.60;99.90
4002;DHT22;2015;48.670;9.060;2023-03-01T07:49:53;0.60;99.90
4002;DHT22;2015;48.670;9.060;2023-03-01T07:52:25;0.60;99.90
4002;DHT22;2015;48.670;9.060;2023-03-01T07:54:57;0.60;99.90
4002;DHT22;2015;48.670;9.060;2023-03-01T07:57:29;0.60;99.90
4002;DHT22;2015;48.670;9.060;2023-03-01T08:00:01;0.70;99.90
4002;DHT22;2015;48.670;9.060;2023-03-01T08:02:33;0.70;99.90
4002;DHT22;2015;48.670;9.060;2023-03-01T08:05:05;0.70;99.90
4002;DHT22;2015;48.670;9.060;2023-03-01T08:07:37;0.80;99.90
4002;DHT22;2015;48.670;9.060;2023-03-01T08:10:09;0.90;99.90
4002;DHT22;2015;48.670;9.060;2023-03-01T08:12:41;0.90;99.90
4002;DHT22;2015;48.670;9.060;2023-03-01T08:15:13;1.00;99.90
4002;DHT22;2015;48.670;9.060;2023-03-01T08:17:45;1.00;99.90
4002;DHT22;2015;48.670;9.060;2023-03-01T08:20:17;1.00;99.90
4002;DHT22;2015;48.670;9.060;2023-03-01T08:22:50;1.10;99.90
4002;DHT22;2015;48.670;9.060;2023-03-01T08:25:22;1.10;99.90
4002;DHT22;2015;48.670;9.060;2023-03-01T08:27:54;1.10;99.90
4002;DHT22;2015;48.670;9.060;2023-03-01T08:30:26;1.20;99.90
4002;DHT22;2015;48.670;9.060;2023-03-01T08:32:58;1.20;99.90
4002;DHT22;2015;48.670;9.060;2023-03-01T08:35:30;1.30;99.90
4002;DHT22;2015;48.670;9.060;2023-03-01T08:38:01;1.30;99.90
4002;DHT22;2015;48.670;9.060;2023-03-01T08:40:33;1.40;99.90
4002;DHT22;2015;48.670;9.060;2023-03-01T08:43:05;1.40;99.90
4002;DHT22;2015;48.670;9.060;2023-03-01T08:45:37;1.40;99.90
4002;DHT22;2015;48.670;9.060;2023-03-01T08:48:08;1.30;99.90
4002;DHT22;2015;48.670;9.060;2023-03-01T08:50:40;1.40;99.90
4002;DHT22;2015;48.670;9.060;2023-03-01T08:53:13;1.50;99.90
4002;DHT22;2015;48.670;9.060;2023-03-01T08:55:44;1.50;99.90
4002;DHT22;2015;48.670;9.060;2023-03-01T08:58:16;1.60;99.90
4002;DHT22;2015;48.670;9.060;2023-03-01T09:00:48;1.60;99.90
4002;DHT22;2015;48.670;9.060;2023-03-01T09:03:19;1.70;99.90
4002;DHT22;2015;48.670;9.060;2023-03-01T09:05:52;1.70;99.90
4002;DHT22;2015;48.670;9.060;2023-03-01T09:08:24;1.90;99.90
4002;DHT22;2015;48.670;9.060;2023-03-01T09:10:56;1.90;99.90
4002;DHT22;2015;48.670;9.060;2023-03-01T09:13:28;1.80;99.90
4002;DHT22;2015;48.670;9.060;2023-03-01T09:16:05;1.90;99.90
4002;DHT22;2015;48.670;9.060;2023-03-01T09:18:37;2.00;99.90
4002;DHT22;2015;48.670;9.060;2023-03-01T09:21:14;2.10;99.90
4002;DHT22;2015;48.670;9.060;2023-03-01T09:23:47;2.10;99.90
4002;DHT22;2015;48.670;9.060;2023-03-01T09:26:20;2.10;99.90
4002;DHT22;2015;48.670;9.060;2023-03-01T09:28:55;2.20;99.90
4002;DHT22;2015;48.670;9.060;2023-03-01T09:31:27;2.30;99.90
4002;DHT22;2015;48.670;9.060;2023-03-01T09:33:59;2.60;99.90
4002;DHT22;2015;48.670;9.060;2023-03-01T09:36:31;2.80;99.90
4002;DHT22;2015;48.670;9.060;2023-03-01T09:39:04;2.80;99.90
4002;DHT22;2015;48.670;9.060;2023-03-01T09:42:02;2.70;99.90
4002;DHT22;2015;48.670;9.060;2023-03-01T09:44:43;2.80;99.90
4002;DHT22;2015;48.670;9.060;2023-03-01T09:47:30;2.80;99.90
4002;DHT22;2015;48.670;9.060;2023-03-01T09:50:12;3.10;99.90
4002;DHT22;2015;48.670;9.060;2023-03-01T09:55:43;4.00;99.90
4002;DHT22;2015;48.670;9.060;2023-03-01T10:07:05;8.20;99.90
4002;DHT22;2015;48.670;9.060;2023-03-01T10:09:40;8.40;99.90
4002;DHT22;2015;48.670;9.060;2023-03-01T10:12:37;9.50;99.90
4002;DHT22;2015;48.670;9.060;2023-03-01T10:15:29;10.50;99.90
4002;DHT22;2015;48.670;9.060;2023-03-01T10:18:08;11.60;98.10
4002;DHT22;2015;48.670;9.060;2023-03-01T10:21:02;11.20;96.40
4002;DHT22;2015;48.670;9.060;2023-03-01T10:23:34;10.00;99.30
4002;DHT22;2015;48.670;9.060;2023-03-01T10:29:08;10.50;97.90
4002;DHT22;2015;48.670;9.060;2023-03-01T10:31:51;11.50;96.40
4002;DHT22;2015;48.670;9.060;2023-03-01T10:34:31;11.00;96.50
4002;DHT22;2015;48.670;9.060;2023-03-01T10:37:31;10.40;97.30
4002;DHT22;2015;48.670;9.060;2023-03-01T10:40:06;10.70;97.30
4002;DHT22;2015;48.670;9.060;2023-03-01T10:42:47;11.20;95.80
4002;DHT22;2015;48.670;9.060;2023-03-01T10:48:21;11.50;95.30
4002;DHT22;2015;48.670;9.060;2023-03-01T10:53:38;11.40;94.80
4002;DHT22;2015;48.670;9.060;2023-03-01T10:56:13;11.10;95.30
4002;DHT22;2015;48.670;9.060;2023-03-01T10:59:01;10.90;95.50
4002;DHT22;2015;48.670;9.060;2023-03-01T11:01:34;10.80;94.70
4002;DHT22;2015;48.670;9.060;2023-03-01T11:06:40;10.10;96.60
4002;DHT22;2015;48.670;9.060;2023-03-01T11:09:21;10.50;96.30
4002;DHT22;2015;48.670;9.060;2023-03-01T11:11:55;10.30;95.90
4002;DHT22;2015;48.670;9.060;2023-03-01T11:14:37;9.60;96.80
4002;DHT22;2015;48.670;9.060;2023-03-01T11:20:34;10.20;96.70
4002;DHT22;2015;48.670;9.060;2023-03-01T11:23:12;10.60;95.50
4002;DHT22;2015;48.670;9.060;2023-03-01T11:26:05;10.80;95.50
4002;DHT22;2015;48.670;9.060;2023-03-01T11:28:39;10.70;95.50
4002;DHT22;2015;48.670;9.060;2023-03-01T11:31:12;10.50;95.40
4002;DHT22;2015;48.670;9.060;2023-03-01T11:34:06;10.10;96.90
4002;DHT22;2015;48.670;9.060;2023-03-01T11:36:54;9.90;96.90
4002;DHT22;2015;48.670;9.060;2023-03-01T11:39:47;9.50;97.60
4002;DHT22;2015;48.670;9.060;2023-03-01T11:42:46;9.10;98.00
4002;DHT22;2015;48.670;9.060;2023-03-01T11:45:22;8.20;98.70
4002;DHT22;2015;48.670;9.060;2023-03-01T11:47:58;7.60;99.90
4002;DHT22;2015;48.670;9.060;2023-03-01T11:53:27;6.60;99.90
4002;DHT22;2015;48.670;9.060;2023-03-01T11:56:09;6.50;99.90
4002;DHT22;2015;48.670;9.060;2023-03-01T12:27:35;6.00;99.90
4002;DHT22;2015;48.670;9.060;2023-03-01T12:30:22;6.20;99.90
4002;DHT22;2015;48.670;9.060;2023-03-01T12:42:12;6.00;99.90
4002;DHT22;2015;48.670;9.060;2023-03-01T12:45:21;6.00;99.90
4002;DHT22;2015;48.670;9.060;2023-03-01T12:48:27;6.00;99.90
4002;DHT22;2015;48.670;9.060;2023-03-01T12:51:11;5.90;99.90
4002;DHT22;2015;48.670;9.060;2023-03-01T12:53:47;6.00;99.90
4002;DHT22;2015;48.670;9.060;2023-03-01T12:56:25;6.10;99.90
4002;DHT22;2015;48.670;9.060;2023-03-01T13:04:26;6.20;99.90
4002;DHT22;2015;48.670;9.060;2023-03-01T13:07:15;6.30;99.90
4002;DHT22;2015;48.670;9.060;2023-03-01T13:20:58;6.40;99.90
4002;DHT22;2015;48.670;9.060;2023-03-01T13:23:37;6.30;99.90
4002;DHT22;2015;48.670;9.060;2023-03-01T13:26:17;6.40;99.90
4002;DHT22;2015;48.670;9.060;2023-03-01T13:28:56;6.50;99.90
4002;DHT22;2015;48.670;9.060;2023-03-01T13:34:01;6.50;99.90
4002;DHT22;2015;48.670;9.060;2023-03-01T13:36:49;6.40;99.90
4002;DHT22;2015;48.670;9.060;2023-03-01T13:39:30;6.40;99.90
4002;DHT22;2015;48.670;9.060;2023-03-01T13:44:58;6.40;99.90
4002;DHT22;2015;48.670;9.060;2023-03-01T13:47:32;6.40;99.90
4002;DHT22;2015;48.670;9.060;2023-03-01T13:50:06;6.50;99.90
4002;DHT22;2015;48.670;9.060;2023-03-01T13:52:48;6.50;99.90
4002;DHT22;2015;48.670;9.060;2023-03-01T13:58:01;6.50;99.90
4002;DHT22;2015;48.670;9.060;2023-03-01T14:00:37;6.50;99.90
4002;DHT22;2015;48.670;9.060;2023-03-01T14:03:20;6.50;99.90
4002;DHT22;2015;48.670;9.060;2023-03-01T14:06:01;6.50;99.90
4002;DHT22;2015;48.670;9.060;2023-03-01T14:08:47;6.50;99.90
4002;DHT22;2015;48.670;9.060;2023-03-01T14:20:01;6.50;99.90
4002;DHT22;2015;48.670;9.060;2023-03-01T14:22:36;6.60;99.90
4002;DHT22;2015;48.670;9.060;2023-03-01T14:25:33;6.60;99.90
4002;DHT22;2015;48.670;9.060;2023-03-01T14:28:16;6.70;99.90
4002;DHT22;2015;48.670;9.060;2023-03-01T14:30:51;6.60;99.90
4002;DHT22;2015;48.670;9.060;2023-03-01T14:33:35;6.60;99.90
4002;DHT22;2015;48.670;9.060;2023-03-01T14:36:13;6.60;99.90
4002;DHT22;2015;48.670;9.060;2023-03-01T14:38:46;6.60;99.90
4002;DHT22;2015;48.670;9.060;2023-03-01T14:41:21;6.50;99.90
4002;DHT22;2015;48.670;9.060;2023-03-01T14:43:57;6.40;99.90
4002;DHT22;2015;48.670;9.060;2023-03-01T14:46:38;6.20;99.90
4002;DHT22;2015;48.670;9.060;2023-03-01T14:49:16;6.20;99.90
4002;DHT22;2015;48.670;9.060;2023-03-01T14:54:43;6.00;99.90
4002;DHT22;2015;48.670;9.060;2023-03-01T14:57:21;6.00;99.90
4002;DHT22;2015;48.670;9.060;2023-03-01T14:59:55;6.00;99.90
4002;DHT22;2015;48.670;9.060;2023-03-01T15:02:29;5.90;99.90
4002;DHT22;2015;48.670;9.060;2023-03-01T15:05:03;5.90;99.90
4002;DHT22;2015;48.670;9.060;2023-03-01T15:07:42;5.90;99.90
4002;DHT22;2015;48.670;9.060;2023-03-01T15:10:23;5.90;99.90
4002;DHT22;2015;48.670;9.060;2023-03-01T15:12:55;5.90;99.90
4002;DHT22;2015;48.670;9.060;2023-03-01T15:18:19;5.90;99.90
4002;DHT22;2015;48.670;9.060;2023-03-01T15:20:52;5.90;99.90
4002;DHT22;2015;48.670;9.060;2023-03-01T15:23:27;5.80;99.90
4002;DHT22;2015;48.670;9.060;2023-03-01T15:26:00;5.80;99.90
4002;DHT22;2015;48.670;9.060;2023-03-01T15:28:42;5.80;99.90
4002;DHT22;2015;48.670;9.060;2023-03-01T15:31:38;5.80;99.90
4002;DHT22;2015;48.670;9.060;2023-03-01T15:34:34;5.80;99.90
4002;DHT22;2015;48.670;9.060;2023-03-01T15:37:33;5.70;99.90
4002;DHT22;2015;48.670;9.060;2023-03-01T15:39:58;5.70;99.90
4002;DHT22;2015;48.670;9.060;2023-03-01T15:45:22;5.70;99.90
4002;DHT22;2015;48.670;9.060;2023-03-01T15:47:57;5.70;99.90
4002;DHT22;2015;48.670;9.060;2023-03-01T15:50:34;5.60;99.90
4002;DHT22;2015;48.670;9.060;2023-03-01T15:53:12;5.60;99.90
4002;DHT22;2015;48.670;9.060;2023-03-01T15:55:45;5.50;99.90
4002;DHT22;2015;48.670;9.060;2023-03-01T15:58:25;5.50;99.90
4002;DHT22;2015;48.670;9.060;2023-03-01T16:00:57;5.40;99.90
4002;DHT22;2015;48.670;9.060;2023-03-01T16:03:32;5.30;99.90
4002;DHT22;2015;48.670;9.060;2023-03-01T16:06:04;5.30;99.90
4002;DHT22;2015;48.670;9.060;2023-03-01T16:08:37;5.30;99.90
4002;DHT22;2015;48.670;9.060;2023-03-01T16:11:15;5.20;99.90
4002;DHT22;2015;48.670;9.060;2023-03-01T16:13:47;5.20;99.90
4002;DHT22;2015;48.670;9.060;2023-03-01T16:16:19;5.20;99.90
4002;DHT22;2015;48.670;9.060;2023-03-01T16:18:51;5.10;99.90
4002;DHT22;2015;48.670;9.060;2023-03-01T16:21:26;5.10;99.90
4002;DHT22;2015;48.670;9.060;2023-03-01T16:23:57;5.10;99.90
4002;DHT22;2015;48.670;9.060;2023-03-01T16:26:29;5.00;99.90
4002;DHT22;2015;48.670;9.060;2023-03-01T16:29:01;4.90;99.90
4002;DHT22;2015;48.670;9.060;2023-03-01T16:31:33;4.90;99.90
4002;DHT22;2015;48.670;9.060;2023-03-01T16:34:06;4.90;99.90
4002;DHT22;2015;48.670;9.060;2023-03-01T16:36:37;4.90;99.90
4002;DHT22;2015;48.670;9.060;2023-03-01T16:39:10;4.90;99.90
4002;DHT22;2015;48.670;9.060;2023-03-01T16:41:41;4.80;99.90
4002;DHT22;2015;48.670;9.060;2023-03-01T16:44:14;4.80;99.90
4002;DHT22;2015;48.670;9.060;2023-03-01T16:46:46;4.80;99.90
4002;DHT22;2015;48.670;9.060;2023-03-01T16:49:18;4.70;99.90
4002;DHT22;2015;48.670;9.060;2023-03-01T16:51:49;4.70;99.90
4002;DHT22;2015;48.670;9.060;2023-03-01T16:54:21;4.60;99.90
4002;DHT22;2015;48.670;9.060;2023-03-01T16:56:53;4.60;99.90
4002;DHT22;2015;48.670;9.060;2023-03-01T16:59:25;4.60;99.90
4002;DHT22;2015;48.670;9.060;2023-03-01T17:01:56;4.60;99.90
4002;DHT22;2015;48.670;9.060;2023-03-01T17:04:28;4.50;99.90
4002;DHT22;2015;48.670;9.060;2023-03-01T17:07:00;4.50;99.90
4002;DHT22;2015;48.670;9.060;2023-03-01T17:09:36;4.40;99.90
4002;DHT22;2015;48.670;9.060;2023-03-01T17:12:08;4.40;99.90
4002;DHT22;2015;48.670;9.060;2023-03-01T17:14:40;4.40;99.90
4002;DHT22;2015;48.670;9.060;2023-03-01T17:17:12;4.40;99.90
4002;DHT22;2015;48.670;9.060;2023-03-01T17:19:44;4.40;99.90
4002;DHT22;2015;48.670;9.060;2023-03-01T17:22:16;4.30;99.90
4002;DHT22;2015;48.670;9.060;2023-03-01T17:24:48;4.30;99.90
4002;DHT22;2015;48.670;9.060;2023-03-01T17:27:20;4.30;99.90
4002;DHT22;2015;48.670;9.060;2023-03-01T17:29:53;4.20;99.90
4002;DHT22;2015;48.670;9.060;2023-03-01T17:32:24;4.20;99.90
4002;DHT22;2015;48.670;9.060;2023-03-01T17:34:56;4.10;99.90
4002;DHT22;2015;48.670;9.060;2023-03-01T17:37:28;4.10;99.90
4002;DHT22;2015;48.670;9.060;2023-03-01T17:40:00;4.00;99.90
4002;DHT22;2015;48.670;9.060;2023-03-01T17:42:32;4.00;99.90
4002;DHT22;2015;48.670;9.060;2023-03-01T17:45:04;3.90;99.90
4002;DHT22;2015;48.670;9.060;2023-03-01T17:47:36;3.90;99.90
4002;DHT22;2015;48.670;9.060;2023-03-01T17:50:08;3.80;99.90
4002;DHT22;2015;48.670;9.060;2023-03-01T17:52:40;3.60;99.90
4002;DHT22;2015;48.670;9.060;2023-03-01T17:55:13;3.40;99.90
4002;DHT22;2015;48.670;9.060;2023-03-01T17:57:44;3.30;99.90
4002;DHT22;2015;48.670;9.060;2023-03-01T18:00:16;3.20;99.90
4002;DHT22;2015;48.670;9.060;2023-03-01T18:02:48;3.10;99.90
4002;DHT22;2015;48.670;9.060;2023-03-01T18:05:20;3.10;99.90
4002;DHT22;2015;48.670;9.060;2023-03-01T18:07:52;3.00;99.90
4002;DHT22;2015;48.670;9.060;2023-03-01T18:10:24;2.90;99.90
4002;DHT22;2015;48.670;9.060;2023-03-01T18:12:56;2.90;99.90
4002;DHT22;2015;48.670;9.060;2023-03-01T18:15:28;2.80;99.90
4002;DHT22;2015;48.670;9.060;2023-03-01T18:17:59;2.80;99.90
4002;DHT22;2015;48.670;9.060;2023-03-01T18:20:31;2.70;99.90
4002;DHT22;2015;48.670;9.060;2023-03-01T18:23:04;2.70;99.90
4002;DHT22;2015;48.670;9.060;2023-03-01T18:25:38;2.60;99.90
4002;DHT22;2015;48.670;9.060;2023-03-01T18:28:10;2.60;99.90
4002;DHT22;2015;48.670;9.060;2023-03-01T18:30:42;2.60;99.90
4002;DHT22;2015;48.670;9.060;2023-03-01T18:33:14;2.60;99.90
4002;DHT22;2015;48.670;9.060;2023-03-01T18:35:46;2.50;99.90
4002;DHT22;2015;48.670;9.060;2023-03-01T18:38:19;2.40;99.90
4002;DHT22;2015;48.670;9.060;2023-03-01T18:40:51;2.30;99.90
4002;DHT22;2015;48.670;9.060;2023-03-01T18:43:23;2.30;99.90
4002;DHT22;2015;48.670;9.060;2023-03-01T18:45:59;2.20;99.90
4002;DHT22;2015;48.670;9.060;2023-03-01T18:48:31;2.30;99.90
4002;DHT22;2015;48.670;9.060;2023-03-01T18:51:14;2.20;99.90
4002;DHT22;2015;48.670;9.060;2023-03-01T18:53:47;2.30;99.90